Time;durP1;ratioP1;P1;durP2;ratioP2;P2;SDS_P1;SDS_P2;PMS_P1;PMS_P2;Temp;Humidity;BMP_temperature;BMP_pressure;BME280_temperature;BME280_humidity;BME280_pressure;Samples;Min_cycle;Max_cycle;Signal;HPM_P1;HPM_P2
2022/04/12 00:00:38;;;;;;;4.03;2.00;;;;;;;;;;5039379;28;20261;-51
2022/04/12 00:03:05;;;;;;;2.60;2.40;;;;;;;;;;5066411;28;20189;-50
2022/04/12 00:05:32;;;;;;;2.93;2.43;;;;;;;;;;5077641;28;20210;-49
2022/04/12 00:07:59;;;;;;;2.43;2.17;;;;;;;;;;5058058;28;20193;-50
2022/04/12 00:10:27;;;;;;;2.50;2.30;;;;;;;;;;5059811;28;20179;-51
2022/04/12 00:12:54;;;;;;;2.33;2.13;;;;;;;;;;5048183;28;20220;-50
2022/04/12 00:15:20;;;;;;;2.80;2.30;;;;;;;;;;5069699;28;20567;-51
2022/04/12 00:20:32;;;;;;;3.20;2.70;;;;;;;;;;5062953;28;20297;-49
2022/04/12 00:22:58;;;;;;;3.10;2.40;;;;;;;;;;5071766;28;20180;-50
2022/04/12 00:25:26;;;;;;;2.40;2.20;;;;;;;;;;5074817;28;20215;-51
2022/04/12 00:27:54;;;;;;;2.70;2.50;;;;;;;;;;5043192;28;20180;-50
2022/04/12 00:30:21;;;;;;;2.40;2.20;;;;;;;;;;5059027;28;20219;-50
2022/04/12 00:32:47;;;;;;;2.63;2.27;;;;;;;;;;5076080;28;20703;-52
2022/04/12 00:35:14;;;;;;;2.47;2.27;;;;;;;;;;5080379;28;20188;-49
2022/04/12 00:37:40;;;;;;;2.43;2.23;;;;;;;;;;5052999;28;20211;-50
2022/04/12 00:40:07;;;;;;;2.50;2.30;;;;;;;;;;5080421;28;20176;-50
2022/04/12 00:42:33;;;;;;;2.57;2.30;;;;;;;;;;5074740;28;20751;-49
2022/04/12 00:44:59;;;;;;;2.83;2.57;;;;;;;;;;5069850;28;20562;-51
2022/04/12 00:47:25;;;;;;;2.27;2.07;;;;;;;;;;5084038;28;20184;-49
2022/04/12 00:49:52;;;;;;;2.70;2.40;;;;;;;;;;5069124;28;20259;-49
2022/04/12 00:52:18;;;;;;;2.63;2.30;;;;;;;;;;5069228;28;21093;-50
2022/04/12 00:54:45;;;;;;;2.87;2.33;;;;;;;;;;5078063;28;20193;-50
2022/04/12 00:57:12;;;;;;;2.90;2.70;;;;;;;;;;5074041;28;20204;-49
2022/04/12 00:59:39;;;;;;;2.87;2.47;;;;;;;;;;5057110;28;20181;-50
2022/04/12 01:02:07;;;;;;;2.57;2.23;;;;;;;;;;5061813;28;20188;-49
2022/04/12 01:04:35;;;;;;;2.60;2.40;;;;;;;;;;5057170;28;20215;-50
2022/04/12 01:07:06;;;;;;;2.27;2.07;;;;;;;;;;5058280;28;20179;-49
2022/04/12 01:09:33;;;;;;;2.07;1.97;;;;;;;;;;5076477;28;20242;-50
2022/04/12 01:12:02;;;;;;;2.20;2.00;;;;;;;;;;5080174;28;20176;-51
2022/04/12 01:14:28;;;;;;;2.50;2.30;;;;;;;;;;5037567;28;20769;-48
2022/04/12 01:16:56;;;;;;;3.03;2.67;;;;;;;;;;5039068;28;20193;-50
2022/04/12 01:19:24;;;;;;;2.33;2.20;;;;;;;;;;5028914;28;20276;-49
2022/04/12 01:21:55;;;;;;;2.70;2.43;;;;;;;;;;5038899;28;20185;-49
2022/04/12 01:24:22;;;;;;;2.27;2.07;;;;;;;;;;5060136;28;20200;-53
2022/04/12 01:26:49;;;;;;;2.53;2.33;;;;;;;;;;5051599;28;20529;-49
2022/04/12 01:29:16;;;;;;;3.53;2.50;;;;;;;;;;5046439;28;20213;-50
2022/04/12 01:31:45;;;;;;;2.17;1.97;;;;;;;;;;5030652;28;20571;-50
2022/04/12 01:34:12;;;;;;;2.30;2.10;;;;;;;;;;5042271;28;20193;-52
2022/04/12 01:36:38;;;;;;;1.90;1.80;;;;;;;;;;5049017;28;20181;-52
2022/04/12 01:39:05;;;;;;;2.53;2.33;;;;;;;;;;5056230;28;20190;-50
2022/04/12 01:41:36;;;;;;;2.27;2.00;;;;;;;;;;5034775;28;20212;-50
2022/04/12 01:44:04;;;;;;;2.73;2.10;;;;;;;;;;5044161;28;20671;-50
2022/04/12 01:46:32;;;;;;;2.50;2.00;;;;;;;;;;5040522;28;20184;-50
2022/04/12 01:48:59;;;;;;;4.10;2.40;;;;;;;;;;5035384;28;20176;-50
2022/04/12 01:51:25;;;;;;;2.37;2.13;;;;;;;;;;5057510;28;20211;-51
2022/04/12 01:53:52;;;;;;;2.40;2.20;;;;;;;;;;5039424;28;20196;-50
2022/04/12 01:56:19;;;;;;;3.00;2.70;;;;;;;;;;5040150;28;20189;-51
2022/04/12 01:58:47;;;;;;;2.10;2.00;;;;;;;;;;5057989;28;20887;-51
2022/04/12 02:01:15;;;;;;;2.50;2.30;;;;;;;;;;5031720;28;20217;-49
2022/04/12 02:03:42;;;;;;;2.20;2.00;;;;;;;;;;5050268;28;20260;-50
2022/04/12 02:06:10;;;;;;;3.07;2.00;;;;;;;;;;5042829;28;20177;-49
2022/04/12 02:08:40;;;;;;;2.57;2.37;;;;;;;;;;5055293;28;20279;-50
2022/04/12 02:11:07;;;;;;;1.90;1.80;;;;;;;;;;5036449;28;20191;-50
2022/04/12 02:13:35;;;;;;;3.50;1.80;;;;;;;;;;5025790;28;20225;-49
2022/04/12 02:16:08;;;;;;;2.10;2.00;;;;;;;;;;5019547;28;20178;-50
2022/04/12 02:18:37;;;;;;;2.00;1.80;;;;;;;;;;5023030;28;20550;-50
2022/04/12 02:21:04;;;;;;;2.27;2.07;;;;;;;;;;5019914;28;20313;-50
2022/04/12 02:23:30;;;;;;;2.10;1.80;;;;;;;;;;5036117;28;20216;-49
2022/04/12 02:25:56;;;;;;;2.00;1.80;;;;;;;;;;5033654;28;20182;-50
2022/04/12 02:28:23;;;;;;;2.30;2.10;;;;;;;;;;5040313;28;20190;-50
2022/04/12 02:30:50;;;;;;;2.20;1.83;;;;;;;;;;5030469;28;20209;-50
2022/04/12 02:33:17;;;;;;;2.43;1.90;;;;;;;;;;5031405;28;20709;-50
2022/04/12 02:35:44;;;;;;;2.17;1.97;;;;;;;;;;5039982;28;20177;-52
2022/04/12 02:38:10;;;;;;;2.30;2.10;;;;;;;;;;5025001;28;20644;-51
2022/04/12 02:40:38;;;;;;;2.33;2.10;;;;;;;;;;5045691;28;20243;-48
2022/04/12 02:43:06;;;;;;;2.73;1.77;;;;;;;;;;5017508;28;20184;-50
2022/04/12 02:45:33;;;;;;;2.17;1.93;;;;;;;;;;5029286;28;20205;-49
2022/04/12 02:48:00;;;;;;;2.40;2.10;;;;;;;;;;5022115;28;20246;-50
2022/04/12 02:50:27;;;;;;;1.93;1.73;;;;;;;;;;5037178;28;20549;-50
2022/04/12 02:52:54;;;;;;;1.97;1.87;;;;;;;;;;5015272;28;20178;-50
2022/04/12 02:55:22;;;;;;;3.50;1.87;;;;;;;;;;5055974;28;20185;-52
2022/04/12 02:57:51;;;;;;;3.30;3.00;;;;;;;;;;5024455;28;20224;-50
2022/04/12 03:00:18;;;;;;;2.70;2.40;;;;;;;;;;5041918;28;20212;-52
2022/04/12 03:02:44;;;;;;;2.07;1.87;;;;;;;;;;5034440;28;20216;-50
2022/04/12 03:05:10;;;;;;;2.17;1.97;;;;;;;;;;5032658;28;20209;-50
2022/04/12 03:07:38;;;;;;;4.20;2.60;;;;;;;;;;5034685;28;20652;-50
2022/04/12 03:10:05;;;;;;;2.33;2.13;;;;;;;;;;5020519;28;20182;-50
2022/04/12 03:12:31;;;;;;;1.70;1.60;;;;;;;;;;5034194;28;20671;-50
2022/04/12 03:15:02;;;;;;;3.27;2.40;;;;;;;;;;5048239;28;20185;-49
2022/04/12 03:17:30;;;;;;;2.43;2.23;;;;;;;;;;5053185;28;20193;-48
2022/04/12 03:19:58;;;;;;;2.10;2.00;;;;;;;;;;5029163;28;20184;-50
2022/04/12 03:22:25;;;;;;;2.33;2.03;;;;;;;;;;5040239;28;20241;-50
2022/04/12 03:24:52;;;;;;;2.50;2.00;;;;;;;;;;5037105;28;20738;-51
2022/04/12 03:27:20;;;;;;;2.67;2.47;;;;;;;;;;5054176;28;20185;-49
2022/04/12 03:29:48;;;;;;;1.90;1.80;;;;;;;;;;5035404;28;20696;-52
2022/04/12 03:32:15;;;;;;;3.23;2.93;;;;;;;;;;5056232;28;20667;-48
2022/04/12 03:34:42;;;;;;;2.60;2.13;;;;;;;;;;5037340;28;20915;-49
2022/04/12 03:37:09;;;;;;;3.90;2.20;;;;;;;;;;5053469;28;20271;-48
2022/04/12 03:39:36;;;;;;;2.23;2.00;;;;;;;;;;5018522;28;20185;-49
2022/04/12 03:42:04;;;;;;;2.37;2.17;;;;;;;;;;5031131;28;20221;-48
2022/04/12 03:44:32;;;;;;;2.03;1.87;;;;;;;;;;5044968;28;20197;-49
2022/04/12 03:47:01;;;;;;;2.20;2.00;;;;;;;;;;5027393;28;20228;-50
2022/04/12 03:49:29;;;;;;;2.23;2.03;;;;;;;;;;5044187;28;20189;-48
2022/04/12 03:51:55;;;;;;;4.13;2.20;;;;;;;;;;5034827;28;20192;-50
2022/04/12 03:54:23;;;;;;;2.17;1.93;;;;;;;;;;5047089;28;20752;-50
2022/04/12 03:56:50;;;;;;;2.43;1.87;;;;;;;;;;5036861;28;20200;-49
2022/04/12 03:59:17;;;;;;;3.17;2.47;;;;;;;;;;5063316;28;20663;-51
2022/04/12 04:01:43;;;;;;;1.97;1.83;;;;;;;;;;5038327;28;20184;-49
2022/04/12 04:04:09;;;;;;;2.30;2.10;;;;;;;;;;5062999;28;20209;-49
2022/04/12 04:06:35;;;;;;;2.33;2.00;;;;;;;;;;5055167;28;20191;-49
2022/04/12 04:09:04;;;;;;;2.23;2.03;;;;;;;;;;5035530;28;20237;-51
2022/04/12 04:11:31;;;;;;;2.27;2.13;;;;;;;;;;5040160;28;20187;-50
2022/04/12 04:14:00;;;;;;;2.60;2.40;;;;;;;;;;5068951;28;20236;-49
2022/04/12 04:16:28;;;;;;;2.10;1.90;;;;;;;;;;5080094;28;20211;-47
2022/04/12 04:18:55;;;;;;;1.90;1.80;;;;;;;;;;5083038;28;20184;-50
2022/04/12 04:21:23;;;;;;;3.50;3.20;;;;;;;;;;5050378;28;20188;-51
2022/04/12 04:23:50;;;;;;;1.87;1.70;;;;;;;;;;5058674;28;20631;-48
2022/04/12 04:26:16;;;;;;;3.70;3.40;;;;;;;;;;5074233;28;20190;-49
2022/04/12 04:28:44;;;;;;;2.30;2.10;;;;;;;;;;5068679;28;20176;-48
2022/04/12 04:31:11;;;;;;;3.70;3.50;;;;;;;;;;5054199;28;20264;-49
2022/04/12 04:33:37;;;;;;;2.57;2.07;;;;;;;;;;5059404;28;20184;-51
2022/04/12 04:36:04;;;;;;;3.00;2.67;;;;;;;;;;5049377;28;20188;-50
2022/04/12 04:38:31;;;;;;;2.30;2.10;;;;;;;;;;5043736;28;20173;-50
2022/04/12 04:41:00;;;;;;;2.10;1.90;;;;;;;;;;5041354;28;20291;-52
2022/04/12 04:43:28;;;;;;;2.80;2.60;;;;;;;;;;5047754;28;20189;-50
2022/04/12 04:45:55;;;;;;;2.30;2.10;;;;;;;;;;5057180;28;20204;-50
2022/04/12 04:48:21;;;;;;;3.00;2.70;;;;;;;;;;5077287;28;20191;-49
2022/04/12 04:50:48;;;;;;;3.03;2.53;;;;;;;;;;5068885;28;20670;-49
2022/04/12 04:53:15;;;;;;;2.30;2.13;;;;;;;;;;5061151;28;20189;-48
2022/04/12 04:55:42;;;;;;;2.47;2.27;;;;;;;;;;5056794;28;20692;-50
2022/04/12 04:58:10;;;;;;;2.63;2.43;;;;;;;;;;5064918;28;20219;-50
2022/04/12 05:00:37;;;;;;;3.70;3.40;;;;;;;;;;5079963;28;20240;-49
2022/04/12 05:03:05;;;;;;;4.17;2.33;;;;;;;;;;5053355;28;20184;-51
2022/04/12 05:05:32;;;;;;;2.77;2.30;;;;;;;;;;5050337;28;20562;-48
2022/04/12 05:08:00;;;;;;;2.87;2.43;;;;;;;;;;5059778;28;20180;-51
2022/04/12 05:10:29;;;;;;;3.07;2.63;;;;;;;;;;5053759;28;20184;-49
2022/04/12 05:12:56;;;;;;;3.70;2.43;;;;;;;;;;5066108;28;20235;-49
2022/04/12 05:15:27;;;;;;;3.37;2.77;;;;;;;;;;5026805;28;20195;-50
2022/04/12 05:17:54;;;;;;;2.60;2.40;;;;;;;;;;5066210;28;20249;-50
2022/04/12 05:20:24;;;;;;;3.00;2.77;;;;;;;;;;5035636;28;20543;-50
2022/04/12 05:22:51;;;;;;;2.67;2.47;;;;;;;;;;5070296;28;20542;-49
2022/04/12 05:25:18;;;;;;;2.23;1.90;;;;;;;;;;5061592;28;20587;-48
2022/04/12 05:27:47;;;;;;;3.47;2.47;;;;;;;;;;5051008;28;20176;-50
2022/04/12 05:30:14;;;;;;;3.00;2.57;;;;;;;;;;5051367;28;21030;-50
2022/04/12 05:32:41;;;;;;;2.70;2.30;;;;;;;;;;5069052;28;20192;-50
2022/04/12 05:35:10;;;;;;;2.97;2.67;;;;;;;;;;5050853;28;20561;-49
2022/04/12 05:37:46;;;;;;;2.30;2.03;;;;;;;;;;5052165;28;20552;-49
2022/04/12 05:40:13;;;;;;;3.63;2.30;;;;;;;;;;5054823;28;20186;-49
2022/04/12 05:42:40;;;;;;;3.67;2.50;;;;;;;;;;5082088;28;20187;-51
2022/04/12 05:45:07;;;;;;;4.53;3.93;;;;;;;;;;5070258;28;20204;-50
2022/04/12 05:47:50;;;;;;;2.30;2.10;;;;;;;;;;5067675;28;20181;-50
2022/04/12 05:50:18;;;;;;;2.57;2.37;;;;;;;;;;5061380;28;20666;-50
2022/04/12 05:52:45;;;;;;;3.27;1.87;;;;;;;;;;5065843;28;20180;-50
2022/04/12 05:55:17;;;;;;;2.50;2.00;;;;;;;;;;5076583;28;20197;-50
2022/04/12 05:58:00;;;;;;;2.80;2.60;;;;;;;;;;5051779;28;20435;-50
2022/04/12 06:00:29;;;;;;;3.43;2.23;;;;;;;;;;5072065;28;20226;-49
2022/04/12 06:02:57;;;;;;;3.13;2.23;;;;;;;;;;5068930;28;20268;-51
2022/04/12 06:05:28;;;;;;;3.10;2.33;;;;;;;;;;5049723;28;20216;-48
2022/04/12 06:07:55;;;;;;;3.33;2.40;;;;;;;;;;5051553;28;20169;-52
2022/04/12 06:10:21;;;;;;;4.03;2.37;;;;;;;;;;5069391;28;20180;-53
2022/04/12 06:12:49;;;;;;;2.80;2.50;;;;;;;;;;5046895;28;20266;-55
2022/04/12 06:15:16;;;;;;;3.30;2.87;;;;;;;;;;5035800;28;20187;-54
2022/04/12 06:17:42;;;;;;;3.27;2.33;;;;;;;;;;5041530;28;20310;-54
2022/04/12 06:20:10;;;;;;;3.37;2.67;;;;;;;;;;5061434;28;20184;-54
2022/04/12 06:22:37;;;;;;;4.10;2.53;;;;;;;;;;5045568;28;20195;-52
2022/04/12 06:25:03;;;;;;;3.43;2.40;;;;;;;;;;5019945;28;20204;-53
2022/04/12 06:27:31;;;;;;;3.33;2.77;;;;;;;;;;5030652;28;20181;-52
2022/04/12 06:29:57;;;;;;;3.70;3.10;;;;;;;;;;5047989;28;20177;-53
2022/04/12 06:32:24;;;;;;;3.10;2.67;;;;;;;;;;5030703;28;20201;-54
2022/04/12 06:34:50;;;;;;;4.23;3.10;;;;;;;;;;5029438;28;20189;-52
2022/04/12 06:37:16;;;;;;;4.50;3.20;;;;;;;;;;5047983;28;20560;-54
2022/04/12 06:39:43;;;;;;;3.60;2.57;;;;;;;;;;5030361;28;20540;-53
2022/04/12 06:42:09;;;;;;;4.87;3.00;;;;;;;;;;5033331;28;20189;-54
2022/04/12 06:44:37;;;;;;;3.13;2.63;;;;;;;;;;5027555;28;20575;-53
2022/04/12 06:47:03;;;;;;;3.57;3.20;;;;;;;;;;5028112;28;20690;-53
2022/04/12 06:49:30;;;;;;;4.50;2.80;;;;;;;;;;5029040;28;20268;-53
2022/04/12 06:51:56;;;;;;;3.07;2.77;;;;;;;;;;5048219;28;20211;-53
2022/04/12 06:54:26;;;;;;;3.47;3.00;;;;;;;;;;5032182;28;20186;-54
2022/04/12 06:56:53;;;;;;;3.90;3.20;;;;;;;;;;5030161;28;20683;-52
2022/04/12 06:59:20;;;;;;;3.77;2.90;;;;;;;;;;5040149;28;20180;-53
2022/04/12 07:01:47;;;;;;;4.73;3.13;;;;;;;;;;5051791;28;20180;-53
2022/04/12 07:04:13;;;;;;;4.40;3.67;;;;;;;;;;5047137;28;20189;-53
2022/04/12 07:06:39;;;;;;;3.00;2.70;;;;;;;;;;5041089;28;20169;-56
2022/04/12 07:09:08;;;;;;;5.77;3.37;;;;;;;;;;5051705;28;20184;-52
2022/04/12 07:11:35;;;;;;;3.77;2.67;;;;;;;;;;5033820;28;20172;-55
2022/04/12 07:14:01;;;;;;;3.77;3.40;;;;;;;;;;5048114;28;20334;-54
2022/04/12 07:16:28;;;;;;;4.07;2.97;;;;;;;;;;5034774;28;20185;-54
2022/04/12 07:18:54;;;;;;;3.20;2.90;;;;;;;;;;5054523;28;20180;-54
2022/04/12 07:21:21;;;;;;;3.27;2.97;;;;;;;;;;5052196;28;20184;-52
2022/04/12 07:23:50;;;;;;;8.93;3.17;;;;;;;;;;5052085;28;20185;-53
2022/04/12 07:26:17;;;;;;;3.53;2.70;;;;;;;;;;5040639;28;20758;-52
2022/04/12 07:28:43;;;;;;;3.00;2.70;;;;;;;;;;5050916;28;20197;-53
2022/04/12 07:31:09;;;;;;;2.97;2.77;;;;;;;;;;5059087;28;20233;-53
2022/04/12 07:33:35;;;;;;;3.27;2.90;;;;;;;;;;5069636;28;20184;-53
2022/04/12 07:36:01;;;;;;;2.90;2.67;;;;;;;;;;5070218;28;20196;-54
2022/04/12 07:38:27;;;;;;;4.00;3.23;;;;;;;;;;5069058;28;20188;-53
2022/04/12 07:40:53;;;;;;;6.00;2.83;;;;;;;;;;5052108;28;20218;-52
2022/04/12 07:43:20;;;;;;;3.10;2.73;;;;;;;;;;5054651;28;20253;-52
2022/04/12 07:45:46;;;;;;;2.60;2.40;;;;;;;;;;5046488;28;20204;-52
2022/04/12 07:48:12;;;;;;;3.40;2.87;;;;;;;;;;5068712;28;20187;-54
2022/04/12 07:50:39;;;;;;;3.30;2.90;;;;;;;;;;5071354;28;20225;-53
2022/04/12 07:53:05;;;;;;;3.83;2.57;;;;;;;;;;5068691;28;20707;-54
2022/04/12 07:55:31;;;;;;;3.10;2.80;;;;;;;;;;5070500;28;20184;-52
2022/04/12 07:57:58;;;;;;;3.17;2.77;;;;;;;;;;5070221;28;20215;-54
2022/04/12 08:00:24;;;;;;;3.10;2.63;;;;;;;;;;5071049;28;20208;-53
2022/04/12 08:02:51;;;;;;;3.17;2.40;;;;;;;;;;5068659;28;20659;-53
2022/04/12 08:05:17;;;;;;;3.87;2.30;;;;;;;;;;5051332;28;20200;-53
2022/04/12 08:07:47;;;;;;;3.07;2.50;;;;;;;;;;5069104;28;20520;-54
2022/04/12 08:10:17;;;;;;;3.80;2.57;;;;;;;;;;5070513;28;20177;-54
2022/04/12 08:12:44;;;;;;;4.67;2.70;;;;;;;;;;5080397;28;20291;-53
2022/04/12 08:15:11;;;;;;;4.10;2.80;;;;;;;;;;5062947;28;20781;-53
2022/04/12 08:17:38;;;;;;;4.07;2.70;;;;;;;;;;5060959;28;20185;-55
2022/04/12 08:20:08;;;;;;;3.00;2.47;;;;;;;;;;5055933;28;20177;-53
2022/04/12 08:22:35;;;;;;;3.10;2.40;;;;;;;;;;5044623;28;20219;-54
2022/04/12 08:25:01;;;;;;;3.83;2.20;;;;;;;;;;5044459;28;20199;-53
2022/04/12 08:27:27;;;;;;;3.03;2.40;;;;;;;;;;5088528;28;20663;-52
2022/04/12 08:29:54;;;;;;;3.57;2.53;;;;;;;;;;5067916;28;20213;-53
2022/04/12 08:32:21;;;;;;;4.33;2.37;;;;;;;;;;5057863;28;20287;-53
2022/04/12 08:34:48;;;;;;;2.83;2.50;;;;;;;;;;5054461;28;20180;-54
2022/04/12 08:37:14;;;;;;;2.90;2.30;;;;;;;;;;5049671;28;20176;-52
2022/04/12 08:39:41;;;;;;;3.13;2.40;;;;;;;;;;5067007;28;20619;-52
2022/04/12 08:42:07;;;;;;;3.67;2.13;;;;;;;;;;5068190;28;20710;-53
2022/04/12 08:44:36;;;;;;;2.60;2.13;;;;;;;;;;5063551;28;20288;-53
2022/04/12 08:47:03;;;;;;;2.03;1.80;;;;;;;;;;5051231;28;20216;-52
2022/04/12 08:49:30;;;;;;;2.77;1.97;;;;;;;;;;5065834;28;20240;-53
2022/04/12 08:51:56;;;;;;;4.33;2.10;;;;;;;;;;5055586;28;20183;-53
2022/04/12 08:54:24;;;;;;;3.67;2.03;;;;;;;;;;5069277;28;20192;-52
2022/04/12 08:56:51;;;;;;;1.90;1.80;;;;;;;;;;5058374;28;20200;-53
2022/04/12 08:59:18;;;;;;;2.37;2.17;;;;;;;;;;5073430;28;21015;-53
2022/04/12 09:01:46;;;;;;;2.50;2.10;;;;;;;;;;5069407;28;20689;-53
2022/04/12 09:04:13;;;;;;;2.30;2.10;;;;;;;;;;5071011;28;20232;-52
2022/04/12 09:06:52;;;;;;;4.20;2.23;;;;;;;;;;5075166;28;20531;-52
2022/04/12 09:09:19;;;;;;;2.60;1.90;;;;;;;;;;5072680;28;20217;-52
2022/04/12 09:11:57;;;;;;;2.40;2.20;;;;;;;;;;5078481;28;20179;-52
2022/04/12 09:14:24;;;;;;;4.07;1.80;;;;;;;;;;5059831;28;20318;-52
2022/04/12 09:16:52;;;;;;;2.47;1.90;;;;;;;;;;5069160;28;20203;-54
2022/04/12 09:19:37;;;;;;;2.70;2.10;;;;;;;;;;5066117;28;20188;-52
2022/04/12 09:22:09;;;;;;;2.60;1.97;;;;;;;;;;5057501;28;20211;-52
2022/04/12 09:24:37;;;;;;;2.30;2.10;;;;;;;;;;5072429;28;20207;-53
2022/04/12 09:27:03;;;;;;;2.23;2.03;;;;;;;;;;5076626;28;20246;-52
2022/04/12 09:29:30;;;;;;;2.80;2.07;;;;;;;;;;5052014;28;20271;-53
2022/04/12 09:31:57;;;;;;;1.90;1.57;;;;;;;;;;5049803;28;20180;-53
2022/04/12 09:34:24;;;;;;;3.03;2.13;;;;;;;;;;5072944;28;20538;-52
2022/04/12 09:36:50;;;;;;;2.97;2.50;;;;;;;;;;5077770;28;20184;-52
2022/04/12 09:39:20;;;;;;;3.30;2.47;;;;;;;;;;5050587;28;20180;-53
2022/04/12 09:41:50;;;;;;;2.80;2.37;;;;;;;;;;5050527;28;20176;-52
2022/04/12 09:44:21;;;;;;;2.07;1.87;;;;;;;;;;5065679;28;20537;-52
2022/04/12 09:46:49;;;;;;;2.57;1.93;;;;;;;;;;5067478;28;20199;-53
2022/04/12 09:49:15;;;;;;;3.23;2.20;;;;;;;;;;5052243;28;20172;-54
2022/04/12 09:51:42;;;;;;;6.77;2.53;;;;;;;;;;5055971;28;20186;-53
2022/04/12 09:54:08;;;;;;;2.10;1.90;;;;;;;;;;5051072;28;20224;-53
2022/04/12 09:56:39;;;;;;;2.00;1.70;;;;;;;;;;5067910;28;20180;-52
2022/04/12 09:59:09;;;;;;;3.40;2.27;;;;;;;;;;5046389;28;20173;-53
2022/04/12 10:01:41;;;;;;;2.80;2.00;;;;;;;;;;5067623;28;20176;-54
2022/04/12 10:04:10;;;;;;;3.70;2.17;;;;;;;;;;5066526;28;20169;-53
2022/04/12 10:06:41;;;;;;;3.53;2.37;;;;;;;;;;5051077;28;20177;-53
2022/04/12 10:09:07;;;;;;;3.33;2.20;;;;;;;;;;5051819;28;20230;-51
2022/04/12 10:11:33;;;;;;;2.93;2.17;;;;;;;;;;5068870;28;20199;-53
2022/04/12 10:14:01;;;;;;;5.10;2.33;;;;;;;;;;5063522;28;20208;-53
2022/04/12 10:16:27;;;;;;;3.33;2.00;;;;;;;;;;5073116;28;20176;-52
2022/04/12 10:18:54;;;;;;;5.03;2.10;;;;;;;;;;5048331;28;20181;-53
2022/04/12 10:21:20;;;;;;;5.53;2.50;;;;;;;;;;5051330;28;20205;-54
2022/04/12 10:23:51;;;;;;;7.23;2.20;;;;;;;;;;5060541;28;20259;-55
2022/04/12 10:26:20;;;;;;;2.27;2.07;;;;;;;;;;5073960;28;20527;-54
2022/04/12 10:28:46;;;;;;;4.60;2.23;;;;;;;;;;5055212;28;20204;-53
2022/04/12 10:31:16;;;;;;;2.77;2.10;;;;;;;;;;5063936;28;20189;-52
2022/04/12 10:33:50;;;;;;;2.23;1.83;;;;;;;;;;5072937;28;20176;-53
2022/04/12 10:36:16;;;;;;;2.70;1.80;;;;;;;;;;5062262;28;20180;-53
2022/04/12 10:38:44;;;;;;;3.40;2.07;;;;;;;;;;5053248;28;20338;-52
2022/04/12 10:41:30;;;;;;;2.30;2.10;;;;;;;;;;5061765;28;20265;-54
2022/04/12 10:43:58;;;;;;;9.37;2.00;;;;;;;;;;5064360;28;20180;-55
2022/04/12 10:46:24;;;;;;;2.67;2.03;;;;;;;;;;5072617;28;20183;-53
2022/04/12 10:48:57;;;;;;;2.47;1.70;;;;;;;;;;5048275;28;21432;-54
2022/04/12 10:51:36;;;;;;;2.30;2.10;;;;;;;;;;5057223;28;20185;-53
2022/04/12 10:54:02;;;;;;;3.53;2.03;;;;;;;;;;5048889;28;20175;-54
2022/04/12 10:56:29;;;;;;;4.90;2.20;;;;;;;;;;5050927;28;20200;-52
2022/04/12 10:58:55;;;;;;;2.17;1.73;;;;;;;;;;5072082;28;20184;-53
2022/04/12 11:01:35;;;;;;;1.87;1.77;;;;;;;;;;5048102;28;20181;-56
2022/04/12 11:04:02;;;;;;;1.60;1.50;;;;;;;;;;5059473;28;20184;-51
2022/04/12 11:06:29;;;;;;;2.57;2.37;;;;;;;;;;5069380;28;20183;-52
2022/04/12 11:08:56;;;;;;;3.13;1.87;;;;;;;;;;5051935;28;20528;-54
2022/04/12 11:11:27;;;;;;;2.37;2.10;;;;;;;;;;5061397;28;20205;-54
2022/04/12 11:13:53;;;;;;;2.77;2.00;;;;;;;;;;5050059;28;20311;-52
2022/04/12 11:16:21;;;;;;;2.07;1.87;;;;;;;;;;5071901;28;20184;-53
2022/04/12 11:18:47;;;;;;;2.43;2.00;;;;;;;;;;5054620;28;20222;-55
2022/04/12 11:21:13;;;;;;;1.83;1.73;;;;;;;;;;5047394;28;20213;-54
2022/04/12 11:23:46;;;;;;;2.53;1.97;;;;;;;;;;5035937;28;20234;-54
2022/04/12 11:26:31;;;;;;;2.97;2.00;;;;;;;;;;5053981;28;20251;-54
2022/04/12 11:28:58;;;;;;;2.60;2.40;;;;;;;;;;5051904;28;20259;-54
2022/04/12 11:31:24;;;;;;;1.70;1.60;;;;;;;;;;5065529;28;20177;-53
2022/04/12 11:33:50;;;;;;;4.33;2.10;;;;;;;;;;5069744;28;20180;-53
2022/04/12 11:36:20;;;;;;;2.27;2.10;;;;;;;;;;5062736;28;20234;-54
2022/04/12 11:38:47;;;;;;;3.50;2.00;;;;;;;;;;5072924;28;20184;-55
2022/04/12 11:41:13;;;;;;;2.93;2.00;;;;;;;;;;5070782;28;20188;-55
2022/04/12 11:43:39;;;;;;;2.37;2.17;;;;;;;;;;5057817;28;20227;-54
2022/04/12 11:46:05;;;;;;;2.50;1.97;;;;;;;;;;5061395;28;20539;-53
2022/04/12 11:48:33;;;;;;;2.43;2.00;;;;;;;;;;5061911;28;20177;-54
2022/04/12 11:51:04;;;;;;;2.57;2.37;;;;;;;;;;5063673;28;20659;-54
2022/04/12 11:53:31;;;;;;;2.00;1.90;;;;;;;;;;5065378;28;20177;-54
2022/04/12 11:56:04;;;;;;;2.83;2.00;;;;;;;;;;5066798;28;20271;-53
2022/04/12 11:58:31;;;;;;;2.23;1.80;;;;;;;;;;5057518;28;20213;-53
2022/04/12 12:00:58;;;;;;;2.77;2.00;;;;;;;;;;5063297;28;20181;-54
2022/04/12 12:03:25;;;;;;;3.43;3.20;;;;;;;;;;5039235;28;20185;-54
2022/04/12 12:05:51;;;;;;;2.50;2.30;;;;;;;;;;5058817;28;20824;-53
2022/04/12 12:08:21;;;;;;;2.20;2.00;;;;;;;;;;5053480;28;20181;-54
2022/04/12 12:10:51;;;;;;;3.03;2.00;;;;;;;;;;5052510;28;20663;-52
2022/04/12 12:13:17;;;;;;;2.00;1.90;;;;;;;;;;5062561;28;20295;-55
2022/04/12 12:15:46;;;;;;;2.80;2.23;;;;;;;;;;5066167;28;20199;-53
2022/04/12 12:18:15;;;;;;;2.00;1.90;;;;;;;;;;5046964;28;20223;-54
2022/04/12 12:20:41;;;;;;;3.43;2.07;;;;;;;;;;5068961;28;20640;-55
2022/04/12 12:23:09;;;;;;;3.20;2.63;;;;;;;;;;5063175;28;20180;-56
2022/04/12 12:25:35;;;;;;;3.00;2.30;;;;;;;;;;5062661;28;20204;-54
2022/04/12 12:28:02;;;;;;;2.57;1.93;;;;;;;;;;5054847;28;20173;-55
2022/04/12 12:30:29;;;;;;;3.40;2.20;;;;;;;;;;5064266;28;20308;-53
2022/04/12 12:32:56;;;;;;;2.60;2.40;;;;;;;;;;5061162;28;20670;-56
2022/04/12 12:35:27;;;;;;;2.90;2.27;;;;;;;;;;5060430;28;20181;-54
2022/04/12 12:38:01;;;;;;;2.80;2.00;;;;;;;;;;5059731;28;20180;-55
2022/04/12 12:40:28;;;;;;;1.90;1.80;;;;;;;;;;5065874;28;20175;-55
2022/04/12 12:42:55;;;;;;;2.63;2.30;;;;;;;;;;5043455;28;20189;-56
2022/04/12 12:45:22;;;;;;;3.47;1.93;;;;;;;;;;5068418;28;20635;-53
2022/04/12 12:47:53;;;;;;;2.33;1.90;;;;;;;;;;5042690;28;20181;-54
2022/04/12 12:50:20;;;;;;;3.80;2.27;;;;;;;;;;5060897;28;20255;-54
2022/04/12 12:52:47;;;;;;;1.97;1.83;;;;;;;;;;5066122;28;20853;-53
2022/04/12 12:55:14;;;;;;;2.10;1.90;;;;;;;;;;5045066;28;20185;-54
2022/04/12 12:57:44;;;;;;;2.03;1.80;;;;;;;;;;5063273;28;20204;-54
2022/04/12 13:00:12;;;;;;;3.53;1.90;;;;;;;;;;5041921;28;20188;-55
2022/04/12 13:02:38;;;;;;;2.37;1.93;;;;;;;;;;5056657;28;20829;-56
2022/04/12 13:05:06;;;;;;;2.30;1.90;;;;;;;;;;5057796;28;20203;-55
2022/04/12 13:07:34;;;;;;;3.10;1.90;;;;;;;;;;5055265;28;20185;-54
2022/04/12 13:10:13;;;;;;;3.20;2.00;;;;;;;;;;5059522;28;20183;-53
2022/04/12 13:12:40;;;;;;;2.63;1.93;;;;;;;;;;5061056;28;20185;-55
2022/04/12 13:15:07;;;;;;;2.37;2.17;;;;;;;;;;5064104;28;20202;-54
2022/04/12 13:17:34;;;;;;;2.60;2.20;;;;;;;;;;5053696;28;20534;-54
2022/04/12 13:20:00;;;;;;;2.07;1.87;;;;;;;;;;5057253;28;20203;-55
2022/04/12 13:22:26;;;;;;;2.00;1.80;;;;;;;;;;5073142;28;20189;-53
2022/04/12 13:24:53;;;;;;;2.30;2.00;;;;;;;;;;5054923;28;20212;-55
2022/04/12 13:27:19;;;;;;;2.63;1.80;;;;;;;;;;5080368;28;20183;-55
2022/04/12 13:29:45;;;;;;;2.33;2.13;;;;;;;;;;5074221;28;20246;-54
2022/04/12 13:32:12;;;;;;;2.57;2.00;;;;;;;;;;5075203;28;20217;-54
2022/04/12 13:34:38;;;;;;;3.00;2.13;;;;;;;;;;5051971;28;20703;-55
2022/04/12 13:37:04;;;;;;;2.23;1.90;;;;;;;;;;5065584;28;20257;-55
2022/04/12 13:39:31;;;;;;;2.60;2.10;;;;;;;;;;5069075;28;20182;-55
2022/04/12 13:41:57;;;;;;;2.20;2.00;;;;;;;;;;5068529;28;20199;-53
2022/04/12 13:44:24;;;;;;;2.00;1.80;;;;;;;;;;5086579;28;20298;-55
2022/04/12 13:46:51;;;;;;;1.80;1.70;;;;;;;;;;5066378;28;20187;-55
2022/04/12 13:49:17;;;;;;;3.57;1.87;;;;;;;;;;5076229;28;20175;-53
2022/04/12 13:51:44;;;;;;;2.50;2.10;;;;;;;;;;5083186;28;20258;-53
2022/04/12 13:54:10;;;;;;;3.80;2.00;;;;;;;;;;5079534;28;20195;-56
2022/04/12 13:56:36;;;;;;;4.03;2.03;;;;;;;;;;5080094;28;20237;-55
2022/04/12 13:59:02;;;;;;;2.07;1.80;;;;;;;;;;5083090;28;20655;-53
2022/04/12 14:01:29;;;;;;;2.77;2.33;;;;;;;;;;5076280;28;20211;-54
2022/04/12 14:03:58;;;;;;;2.10;1.90;;;;;;;;;;5072333;28;20591;-53
2022/04/12 14:06:25;;;;;;;6.30;2.10;;;;;;;;;;5056333;28;20663;-55
2022/04/12 14:08:51;;;;;;;2.03;1.83;;;;;;;;;;5081124;28;20175;-54
2022/04/12 14:11:17;;;;;;;2.27;2.07;;;;;;;;;;5058568;28;20181;-53
2022/04/12 14:13:44;;;;;;;3.20;2.07;;;;;;;;;;5077856;28;20212;-53
2022/04/12 14:16:11;;;;;;;2.50;2.17;;;;;;;;;;5078274;28;20259;-53
2022/04/12 14:18:38;;;;;;;5.13;2.30;;;;;;;;;;5073750;28;20191;-54
2022/04/12 14:21:08;;;;;;;2.07;1.97;;;;;;;;;;5072782;28;20186;-54
2022/04/12 14:23:36;;;;;;;2.23;2.07;;;;;;;;;;5075813;28;20189;-53
2022/04/12 14:26:04;;;;;;;2.77;2.10;;;;;;;;;;5052842;28;20586;-54
2022/04/12 14:28:30;;;;;;;2.70;2.17;;;;;;;;;;5073714;28;20170;-54
2022/04/12 14:30:57;;;;;;;9.43;2.43;;;;;;;;;;5065445;28;20189;-56
2022/04/12 14:33:23;;;;;;;3.47;2.20;;;;;;;;;;5066581;28;20241;-55
2022/04/12 14:35:49;;;;;;;2.27;1.90;;;;;;;;;;5076213;28;20670;-56
2022/04/12 14:38:15;;;;;;;3.20;2.00;;;;;;;;;;5057288;28;20190;-55
2022/04/12 14:40:43;;;;;;;2.50;2.30;;;;;;;;;;5053027;28;20655;-56
2022/04/12 14:43:09;;;;;;;5.27;1.93;;;;;;;;;;5057650;28;20539;-55
2022/04/12 14:45:36;;;;;;;4.00;2.30;;;;;;;;;;5075342;28;20239;-54
2022/04/12 14:48:03;;;;;;;1.80;1.70;;;;;;;;;;5056386;28;20874;-55